createdAt,value
2022-12-19T00:08:52.525Z,1.4
2022-12-19T00:48:55.313Z,1.7
2022-12-19T00:58:55.943Z,1.8
2022-12-19T01:18:56.598Z,1.9
2022-12-19T01:28:57.632Z,2
2022-12-19T01:38:58.640Z,2.2
2022-12-19T01:48:58.892Z,2.4
2022-12-19T01:59:05.101Z,2.5
2022-12-19T02:08:59.942Z,2.6
2022-12-19T02:19:00.948Z,2.8
2022-12-19T02:29:01.312Z,2.8
2022-12-19T02:39:02.157Z,2.9
2022-12-19T02:59:03.199Z,3.3
2022-12-19T03:09:04.026Z,3.4
2022-12-19T03:39:05.943Z,3.9
2022-12-19T03:49:06.860Z,3.9
2022-12-19T04:39:08.584Z,4.2
2022-12-19T04:59:10.397Z,4.3
2022-12-19T06:19:15.901Z,4.3
2022-12-19T07:19:18.782Z,5
2022-12-19T07:39:20.097Z,5.2
2022-12-19T08:19:27.225Z,5.7
2022-12-19T08:59:30.712Z,6.1
2022-12-19T09:29:30.886Z,6.4
2022-12-19T09:39:28.842Z,6.6
2022-12-19T09:49:29.865Z,6.9
2022-12-19T09:59:31.368Z,7
2022-12-19T10:10:25.405Z,7.2
2022-12-19T10:39:32.225Z,7.5
2022-12-19T11:23:01.803Z,7.8
2022-12-19T11:39:35.281Z,7.7
2022-12-19T11:49:36.025Z,7.7
2022-12-19T11:59:36.691Z,7.7
2022-12-19T12:26:49.075Z,8.1
2022-12-19T12:59:40.197Z,8.1
2022-12-19T13:29:42.383Z,8.4
2022-12-19T13:49:42.906Z,8.4
2022-12-19T13:59:54.377Z,8.5
2022-12-19T14:29:52.280Z,8.4
2022-12-19T14:39:45.525Z,8.5
2022-12-19T14:52:08.075Z,8.4
2022-12-19T14:59:46.192Z,8.3
2022-12-19T15:19:46.943Z,8.3
2022-12-19T15:29:47.215Z,8.2
2022-12-19T15:39:48.246Z,8.3
2022-12-19T15:49:48.383Z,8.4
2022-12-19T15:59:49.200Z,8.3
2022-12-19T16:09:50.216Z,8.4
2022-12-19T16:19:51.157Z,8.4
2022-12-19T16:29:51.277Z,8.5
2022-12-19T16:39:51.936Z,8.5
2022-12-19T16:49:51.993Z,8.6
2022-12-19T16:59:57.679Z,8.6
2022-12-19T17:09:57.886Z,8.8
2022-12-19T17:19:58.206Z,8.8
2022-12-19T17:29:58.858Z,8.8
2022-12-19T17:39:59.634Z,8.9
2022-12-19T17:50:00.607Z,8.9
2022-12-19T18:30:02.694Z,9.3
2022-12-19T18:50:03.393Z,9.1
2022-12-19T19:00:04.363Z,9.2
2022-12-19T19:10:04.746Z,9.3
2022-12-19T19:20:05.653Z,9.4
2022-12-19T19:30:06.024Z,9.4
2022-12-19T19:40:06.780Z,9.4
2022-12-19T19:50:07.261Z,9.4
2022-12-19T20:00:07.919Z,9.6
2022-12-19T20:20:09.226Z,9.9
2022-12-19T20:30:09.885Z,9.9
2022-12-19T20:40:10.730Z,9.9
2022-12-19T20:50:11.064Z,9.9
2022-12-19T21:00:11.266Z,9.8
2022-12-19T21:10:12.008Z,9.9
2022-12-19T21:20:12.799Z,10
2022-12-19T21:30:13.267Z,10.1
2022-12-19T21:40:14.080Z,10.1
2022-12-19T21:50:14.179Z,10.1
2022-12-19T22:00:14.597Z,10.2
2022-12-19T22:10:15.079Z,10.3
2022-12-19T22:20:15.688Z,10.3
2022-12-19T22:30:16.522Z,10.3
2022-12-19T22:40:17.526Z,10.3
2022-12-19T22:50:18.120Z,10.2
2022-12-19T23:00:19.087Z,10.2
2022-12-19T23:10:19.578Z,10.2
2022-12-19T23:20:19.850Z,10.3
2022-12-19T23:30:20.764Z,10.3
2022-12-19T23:40:21.347Z,10.5
2022-12-19T23:50:21.481Z,10.9
